sensor_id;sensor_type;location;lat;lon;timestamp;P1;durP1;ratioP1;P2;durP2;ratioP2
21412;SDS011;10867;45.084;5.732;2022-11-14T00:00:04;37.92;;;32.00;;
21412;SDS011;10867;45.084;5.732;2022-11-14T00:02:30;31.77;;;27.95;;
21412;SDS011;10867;45.084;5.732;2022-11-14T00:04:56;33.33;;;28.27;;
21412;SDS011;10867;45.084;5.732;2022-11-14T00:07:22;33.35;;;28.17;;
21412;SDS011;10867;45.084;5.732;2022-11-14T00:09:48;36.15;;;30.25;;
21412;SDS011;10867;45.084;5.732;2022-11-14T00:12:14;32.28;;;28.00;;
21412;SDS011;10867;45.084;5.732;2022-11-14T00:14:41;29.65;;;25.15;;
21412;SDS011;10867;45.084;5.732;2022-11-14T00:17:07;31.20;;;24.23;;
21412;SDS011;10867;45.084;5.732;2022-11-14T00:19:33;26.50;;;22.67;;
21412;SDS011;10867;45.084;5.732;2022-11-14T00:21:59;27.52;;;23.98;;
21412;SDS011;10867;45.084;5.732;2022-11-14T00:24:25;26.35;;;22.00;;
21412;SDS011;10867;45.084;5.732;2022-11-14T00:26:51;24.33;;;19.75;;
21412;SDS011;10867;45.084;5.732;2022-11-14T00:29:17;21.02;;;17.38;;
21412;SDS011;10867;45.084;5.732;2022-11-14T00:31:43;23.10;;;18.23;;
21412;SDS011;10867;45.084;5.732;2022-11-14T00:34:10;21.92;;;18.48;;
21412;SDS011;10867;45.084;5.732;2022-11-14T00:36:36;23.20;;;19.45;;
21412;SDS011;10867;45.084;5.732;2022-11-14T00:39:02;21.83;;;17.33;;
21412;SDS011;10867;45.084;5.732;2022-11-14T00:41:28;19.35;;;15.60;;
21412;SDS011;10867;45.084;5.732;2022-11-14T00:43:55;17.83;;;14.43;;
21412;SDS011;10867;45.084;5.732;2022-11-14T00:46:21;18.45;;;14.45;;
21412;SDS011;10867;45.084;5.732;2022-11-14T00:48:47;17.90;;;13.48;;
21412;SDS011;10867;45.084;5.732;2022-11-14T00:51:13;16.00;;;11.98;;
21412;SDS011;10867;45.084;5.732;2022-11-14T00:53:39;15.23;;;11.05;;
21412;SDS011;10867;45.084;5.732;2022-11-14T00:56:05;13.20;;;11.52;;
21412;SDS011;10867;45.084;5.732;2022-11-14T00:58:31;13.25;;;10.45;;
21412;SDS011;10867;45.084;5.732;2022-11-14T01:00:58;13.75;;;9.90;;
21412;SDS011;10867;45.084;5.732;2022-11-14T01:03:24;11.75;;;9.65;;
21412;SDS011;10867;45.084;5.732;2022-11-14T01:05:50;12.07;;;9.43;;
21412;SDS011;10867;45.084;5.732;2022-11-14T01:08:17;13.35;;;9.48;;
21412;SDS011;10867;45.084;5.732;2022-11-14T01:10:44;11.05;;;8.45;;
21412;SDS011;10867;45.084;5.732;2022-11-14T01:13:10;11.48;;;8.55;;
21412;SDS011;10867;45.084;5.732;2022-11-14T01:15:37;12.07;;;8.70;;
21412;SDS011;10867;45.084;5.732;2022-11-14T01:18:04;9.83;;;8.10;;
21412;SDS011;10867;45.084;5.732;2022-11-14T01:20:30;11.77;;;8.10;;
21412;SDS011;10867;45.084;5.732;2022-11-14T01:22:56;9.73;;;6.37;;
21412;SDS011;10867;45.084;5.732;2022-11-14T01:25:22;9.67;;;6.80;;
21412;SDS011;10867;45.084;5.732;2022-11-14T01:27:49;10.20;;;6.83;;
21412;SDS011;10867;45.084;5.732;2022-11-14T01:30:15;9.25;;;6.38;;
21412;SDS011;10867;45.084;5.732;2022-11-14T01:32:42;8.25;;;5.95;;
21412;SDS011;10867;45.084;5.732;2022-11-14T01:35:08;8.98;;;5.97;;
21412;SDS011;10867;45.084;5.732;2022-11-14T01:37:34;7.45;;;5.70;;
21412;SDS011;10867;45.084;5.732;2022-11-14T01:40:00;7.32;;;5.55;;
21412;SDS011;10867;45.084;5.732;2022-11-14T01:42:26;7.30;;;5.63;;
21412;SDS011;10867;45.084;5.732;2022-11-14T01:44:52;6.93;;;4.85;;
21412;SDS011;10867;45.084;5.732;2022-11-14T01:47:20;7.00;;;5.65;;
21412;SDS011;10867;45.084;5.732;2022-11-14T01:49:49;7.25;;;4.90;;
21412;SDS011;10867;45.084;5.732;2022-11-14T01:52:20;7.32;;;4.75;;
21412;SDS011;10867;45.084;5.732;2022-11-14T01:54:49;7.15;;;4.30;;
21412;SDS011;10867;45.084;5.732;2022-11-14T01:57:18;6.45;;;3.70;;
21412;SDS011;10867;45.084;5.732;2022-11-14T01:59:49;5.10;;;3.83;;
21412;SDS011;10867;45.084;5.732;2022-11-14T02:02:17;6.88;;;4.10;;
21412;SDS011;10867;45.084;5.732;2022-11-14T02:04:47;4.22;;;3.10;;
21412;SDS011;10867;45.084;5.732;2022-11-14T02:07:14;7.47;;;3.55;;
21412;SDS011;10867;45.084;5.732;2022-11-14T02:09:41;5.28;;;3.40;;
21412;SDS011;10867;45.084;5.732;2022-11-14T02:12:09;4.40;;;3.10;;
21412;SDS011;10867;45.084;5.732;2022-11-14T02:14:37;5.28;;;3.10;;
21412;SDS011;10867;45.084;5.732;2022-11-14T02:17:03;4.53;;;2.90;;
21412;SDS011;10867;45.084;5.732;2022-11-14T02:20:32;3.78;;;2.70;;
21412;SDS011;10867;45.084;5.732;2022-11-14T02:22:25;3.70;;;2.40;;
21412;SDS011;10867;45.084;5.732;2022-11-14T02:24:52;3.45;;;2.10;;
21412;SDS011;10867;45.084;5.732;2022-11-14T02:27:18;5.57;;;2.60;;
21412;SDS011;10867;45.084;5.732;2022-11-14T02:29:44;3.30;;;2.10;;
21412;SDS011;10867;45.084;5.732;2022-11-14T02:32:15;3.83;;;2.20;;
21412;SDS011;10867;45.084;5.732;2022-11-14T02:34:41;3.57;;;2.30;;
21412;SDS011;10867;45.084;5.732;2022-11-14T02:37:07;2.80;;;1.63;;
21412;SDS011;10867;45.084;5.732;2022-11-14T02:39:33;2.60;;;1.80;;
21412;SDS011;10867;45.084;5.732;2022-11-14T02:41:59;4.50;;;1.80;;
21412;SDS011;10867;45.084;5.732;2022-11-14T02:44:33;3.23;;;2.13;;
21412;SDS011;10867;45.084;5.732;2022-11-14T02:46:59;2.80;;;1.52;;
21412;SDS011;10867;45.084;5.732;2022-11-14T02:49:25;2.70;;;1.60;;
21412;SDS011;10867;45.084;5.732;2022-11-14T02:51:55;2.80;;;1.80;;
21412;SDS011;10867;45.084;5.732;2022-11-14T02:54:21;4.95;;;2.42;;
21412;SDS011;10867;45.084;5.732;2022-11-14T02:56:47;4.68;;;2.50;;
21412;SDS011;10867;45.084;5.732;2022-11-14T02:59:13;4.90;;;2.47;;
21412;SDS011;10867;45.084;5.732;2022-11-14T03:01:39;5.65;;;2.40;;
21412;SDS011;10867;45.084;5.732;2022-11-14T03:04:05;4.43;;;2.58;;
21412;SDS011;10867;45.084;5.732;2022-11-14T03:06:32;3.80;;;2.40;;
21412;SDS011;10867;45.084;5.732;2022-11-14T03:08:58;3.47;;;2.40;;
21412;SDS011;10867;45.084;5.732;2022-11-14T03:11:24;2.58;;;1.75;;
21412;SDS011;10867;45.084;5.732;2022-11-14T03:13:50;4.25;;;2.10;;
21412;SDS011;10867;45.084;5.732;2022-11-14T03:16:17;3.00;;;1.60;;
21412;SDS011;10867;45.084;5.732;2022-11-14T03:18:45;2.70;;;1.65;;
21412;SDS011;10867;45.084;5.732;2022-11-14T03:24:08;3.42;;;1.60;;
21412;SDS011;10867;45.084;5.732;2022-11-14T03:26:34;3.40;;;1.80;;
21412;SDS011;10867;45.084;5.732;2022-11-14T03:29:00;2.30;;;1.70;;
21412;SDS011;10867;45.084;5.732;2022-11-14T03:31:35;2.28;;;1.60;;
21412;SDS011;10867;45.084;5.732;2022-11-14T03:34:10;3.03;;;1.67;;
21412;SDS011;10867;45.084;5.732;2022-11-14T03:36:39;2.55;;;1.80;;
21412;SDS011;10867;45.084;5.732;2022-11-14T03:39:05;3.42;;;1.70;;
21412;SDS011;10867;45.084;5.732;2022-11-14T03:41:31;4.53;;;1.75;;
21412;SDS011;10867;45.084;5.732;2022-11-14T03:43:59;3.20;;;1.50;;
21412;SDS011;10867;45.084;5.732;2022-11-14T03:46:25;3.33;;;1.80;;
21412;SDS011;10867;45.084;5.732;2022-11-14T03:48:54;3.20;;;1.60;;
21412;SDS011;10867;45.084;5.732;2022-11-14T03:51:20;2.67;;;1.50;;
21412;SDS011;10867;45.084;5.732;2022-11-14T03:53:48;2.38;;;1.52;;
21412;SDS011;10867;45.084;5.732;2022-11-14T03:56:19;2.72;;;1.65;;
21412;SDS011;10867;45.084;5.732;2022-11-14T03:58:46;3.40;;;1.73;;
21412;SDS011;10867;45.084;5.732;2022-11-14T04:01:14;2.00;;;1.50;;
21412;SDS011;10867;45.084;5.732;2022-11-14T04:03:41;2.22;;;1.50;;
21412;SDS011;10867;45.084;5.732;2022-11-14T04:06:07;2.40;;;1.55;;
21412;SDS011;10867;45.084;5.732;2022-11-14T04:08:33;2.63;;;1.70;;
21412;SDS011;10867;45.084;5.732;2022-11-14T04:10:59;2.87;;;1.60;;
21412;SDS011;10867;45.084;5.732;2022-11-14T04:13:28;3.83;;;1.80;;
21412;SDS011;10867;45.084;5.732;2022-11-14T04:15:55;3.45;;;1.48;;
21412;SDS011;10867;45.084;5.732;2022-11-14T04:18:21;2.88;;;1.58;;
21412;SDS011;10867;45.084;5.732;2022-11-14T04:20:50;2.13;;;1.73;;
21412;SDS011;10867;45.084;5.732;2022-11-14T04:23:19;2.57;;;1.60;;
21412;SDS011;10867;45.084;5.732;2022-11-14T04:25:45;2.75;;;1.52;;
21412;SDS011;10867;45.084;5.732;2022-11-14T04:28:14;3.20;;;1.60;;
21412;SDS011;10867;45.084;5.732;2022-11-14T04:30:42;3.13;;;1.60;;
21412;SDS011;10867;45.084;5.732;2022-11-14T04:33:09;2.90;;;1.80;;
21412;SDS011;10867;45.084;5.732;2022-11-14T04:39:02;2.88;;;1.70;;
21412;SDS011;10867;45.084;5.732;2022-11-14T04:41:28;2.33;;;1.73;;
21412;SDS011;10867;45.084;5.732;2022-11-14T04:43:57;2.78;;;1.75;;
21412;SDS011;10867;45.084;5.732;2022-11-14T04:46:23;2.50;;;1.83;;
21412;SDS011;10867;45.084;5.732;2022-11-14T04:48:49;2.13;;;1.60;;
21412;SDS011;10867;45.084;5.732;2022-11-14T04:51:15;4.57;;;1.90;;
21412;SDS011;10867;45.084;5.732;2022-11-14T04:53:46;3.67;;;1.80;;
21412;SDS011;10867;45.084;5.732;2022-11-14T04:56:12;3.90;;;1.95;;
21412;SDS011;10867;45.084;5.732;2022-11-14T04:58:41;2.87;;;1.80;;
21412;SDS011;10867;45.084;5.732;2022-11-14T05:01:08;3.33;;;2.00;;
21412;SDS011;10867;45.084;5.732;2022-11-14T05:03:34;3.90;;;1.80;;
21412;SDS011;10867;45.084;5.732;2022-11-14T05:06:03;3.75;;;1.90;;
21412;SDS011;10867;45.084;5.732;2022-11-14T05:08:34;2.80;;;1.92;;
21412;SDS011;10867;45.084;5.732;2022-11-14T05:11:02;2.72;;;1.92;;
21412;SDS011;10867;45.084;5.732;2022-11-14T05:13:29;2.70;;;2.30;;
21412;SDS011;10867;45.084;5.732;2022-11-14T05:16:00;4.33;;;3.10;;
21412;SDS011;10867;45.084;5.732;2022-11-14T05:18:34;6.90;;;3.53;;
21412;SDS011;10867;45.084;5.732;2022-11-14T05:21:02;5.15;;;3.35;;
21412;SDS011;10867;45.084;5.732;2022-11-14T05:23:28;4.20;;;3.10;;
21412;SDS011;10867;45.084;5.732;2022-11-14T05:26:02;5.28;;;3.60;;
21412;SDS011;10867;45.084;5.732;2022-11-14T05:28:28;5.73;;;4.20;;
21412;SDS011;10867;45.084;5.732;2022-11-14T05:31:08;6.55;;;3.88;;
21412;SDS011;10867;45.084;5.732;2022-11-14T05:33:48;5.82;;;4.10;;
21412;SDS011;10867;45.084;5.732;2022-11-14T05:36:26;10.25;;;8.25;;
21412;SDS011;10867;45.084;5.732;2022-11-14T05:39:01;9.83;;;7.10;;
21412;SDS011;10867;45.084;5.732;2022-11-14T05:41:37;9.98;;;7.93;;
21412;SDS011;10867;45.084;5.732;2022-11-14T05:44:03;8.43;;;6.95;;
21412;SDS011;10867;45.084;5.732;2022-11-14T05:46:29;9.20;;;6.68;;
21412;SDS011;10867;45.084;5.732;2022-11-14T05:49:05;7.77;;;6.20;;
21412;SDS011;10867;45.084;5.732;2022-11-14T05:51:33;9.30;;;6.20;;
21412;SDS011;10867;45.084;5.732;2022-11-14T05:54:02;6.80;;;4.28;;
21412;SDS011;10867;45.084;5.732;2022-11-14T05:56:28;6.45;;;5.30;;
21412;SDS011;10867;45.084;5.732;2022-11-14T05:58:54;6.80;;;5.30;;
21412;SDS011;10867;45.084;5.732;2022-11-14T06:01:20;7.40;;;5.40;;
21412;SDS011;10867;45.084;5.732;2022-11-14T06:03:47;6.90;;;4.97;;
21412;SDS011;10867;45.084;5.732;2022-11-14T06:06:14;5.23;;;4.30;;
21412;SDS011;10867;45.084;5.732;2022-11-14T06:08:41;6.85;;;4.10;;
21412;SDS011;10867;45.084;5.732;2022-11-14T06:11:08;7.88;;;3.70;;
21412;SDS011;10867;45.084;5.732;2022-11-14T06:13:35;9.95;;;4.28;;
21412;SDS011;10867;45.084;5.732;2022-11-14T06:16:01;5.70;;;3.78;;
21412;SDS011;10867;45.084;5.732;2022-11-14T06:18:28;5.72;;;3.63;;
21412;SDS011;10867;45.084;5.732;2022-11-14T06:20:58;4.90;;;3.50;;
21412;SDS011;10867;45.084;5.732;2022-11-14T06:23:24;7.82;;;3.35;;
21412;SDS011;10867;45.084;5.732;2022-11-14T06:25:50;9.07;;;3.93;;
21412;SDS011;10867;45.084;5.732;2022-11-14T06:28:16;3.47;;;2.03;;
21412;SDS011;10867;45.084;5.732;2022-11-14T06:30:43;6.35;;;2.67;;
21412;SDS011;10867;45.084;5.732;2022-11-14T06:33:09;11.00;;;3.58;;
21412;SDS011;10867;45.084;5.732;2022-11-14T06:35:35;15.40;;;4.07;;
21412;SDS011;10867;45.084;5.732;2022-11-14T06:38:01;21.43;;;4.97;;
21412;SDS011;10867;45.084;5.732;2022-11-14T06:40:27;10.67;;;4.47;;
21412;SDS011;10867;45.084;5.732;2022-11-14T06:42:54;8.77;;;4.07;;
21412;SDS011;10867;45.084;5.732;2022-11-14T06:45:20;12.23;;;7.13;;
21412;SDS011;10867;45.084;5.732;2022-11-14T06:47:46;11.38;;;4.97;;
21412;SDS011;10867;45.084;5.732;2022-11-14T06:50:13;8.98;;;2.67;;
21412;SDS011;10867;45.084;5.732;2022-11-14T06:52:39;6.65;;;2.50;;
21412;SDS011;10867;45.084;5.732;2022-11-14T06:55:05;5.30;;;2.08;;
21412;SDS011;10867;45.084;5.732;2022-11-14T06:57:31;13.10;;;3.45;;
21412;SDS011;10867;45.084;5.732;2022-11-14T06:59:57;5.18;;;2.00;;
21412;SDS011;10867;45.084;5.732;2022-11-14T07:02:23;5.65;;;2.30;;
21412;SDS011;10867;45.084;5.732;2022-11-14T07:04:49;3.22;;;2.10;;
21412;SDS011;10867;45.084;5.732;2022-11-14T07:07:16;2.53;;;1.90;;
21412;SDS011;10867;45.084;5.732;2022-11-14T07:09:42;2.53;;;1.83;;
21412;SDS011;10867;45.084;5.732;2022-11-14T07:12:08;3.92;;;1.73;;
21412;SDS011;10867;45.084;5.732;2022-11-14T07:14:34;4.47;;;2.00;;
21412;SDS011;10867;45.084;5.732;2022-11-14T07:17:00;4.85;;;1.88;;
21412;SDS011;10867;45.084;5.732;2022-11-14T07:19:26;4.88;;;1.90;;
21412;SDS011;10867;45.084;5.732;2022-11-14T07:21:52;4.45;;;2.10;;
21412;SDS011;10867;45.084;5.732;2022-11-14T07:24:18;6.50;;;2.25;;
21412;SDS011;10867;45.084;5.732;2022-11-14T07:26:45;5.03;;;2.17;;
21412;SDS011;10867;45.084;5.732;2022-11-14T07:29:11;4.35;;;1.80;;
21412;SDS011;10867;45.084;5.732;2022-11-14T07:31:37;6.40;;;2.47;;
21412;SDS011;10867;45.084;5.732;2022-11-14T07:34:03;4.13;;;1.87;;
21412;SDS011;10867;45.084;5.732;2022-11-14T07:39:06;16.88;;;2.88;;
21412;SDS011;10867;45.084;5.732;2022-11-14T07:41:32;15.10;;;3.72;;
21412;SDS011;10867;45.084;5.732;2022-11-14T07:43:58;12.90;;;3.50;;
21412;SDS011;10867;45.084;5.732;2022-11-14T07:46:24;12.88;;;2.83;;
21412;SDS011;10867;45.084;5.732;2022-11-14T07:48:50;6.07;;;2.35;;
21412;SDS011;10867;45.084;5.732;2022-11-14T07:51:17;8.45;;;2.42;;
21412;SDS011;10867;45.084;5.732;2022-11-14T07:53:44;6.68;;;2.25;;
21412;SDS011;10867;45.084;5.732;2022-11-14T07:56:10;5.15;;;2.00;;
21412;SDS011;10867;45.084;5.732;2022-11-14T07:58:37;7.88;;;2.10;;
21412;SDS011;10867;45.084;5.732;2022-11-14T08:01:04;7.10;;;2.10;;
21412;SDS011;10867;45.084;5.732;2022-11-14T08:03:31;2.78;;;1.65;;
21412;SDS011;10867;45.084;5.732;2022-11-14T08:06:03;3.70;;;1.90;;
21412;SDS011;10867;45.084;5.732;2022-11-14T08:08:29;2.70;;;1.80;;
21412;SDS011;10867;45.084;5.732;2022-11-14T08:14:14;3.57;;;2.10;;
21412;SDS011;10867;45.084;5.732;2022-11-14T08:16:41;4.80;;;2.10;;
21412;SDS011;10867;45.084;5.732;2022-11-14T08:19:49;6.05;;;3.20;;
21412;SDS011;10867;45.084;5.732;2022-11-14T08:24:53;2.75;;;2.10;;
21412;SDS011;10867;45.084;5.732;2022-11-14T08:27:19;8.05;;;2.67;;
21412;SDS011;10867;45.084;5.732;2022-11-14T08:29:49;5.07;;;2.60;;
21412;SDS011;10867;45.084;5.732;2022-11-14T08:35:36;5.80;;;2.83;;
21412;SDS011;10867;45.084;5.732;2022-11-14T08:41:55;5.53;;;2.80;;
21412;SDS011;10867;45.084;5.732;2022-11-14T08:44:21;4.93;;;3.38;;
21412;SDS011;10867;45.084;5.732;2022-11-14T08:46:48;6.07;;;2.97;;
21412;SDS011;10867;45.084;5.732;2022-11-14T08:49:39;4.90;;;2.92;;
21412;SDS011;10867;45.084;5.732;2022-11-14T09:00:05;5.55;;;3.70;;
21412;SDS011;10867;45.084;5.732;2022-11-14T09:57:52;2.45;;;1.50;;
21412;SDS011;10867;45.084;5.732;2022-11-14T10:00:45;3.40;;;1.42;;
21412;SDS011;10867;45.084;5.732;2022-11-14T10:04:07;2.87;;;1.33;;
21412;SDS011;10867;45.084;5.732;2022-11-14T10:09:59;4.60;;;2.65;;
21412;SDS011;10867;45.084;5.732;2022-11-14T10:19:52;3.03;;;1.45;;
21412;SDS011;10867;45.084;5.732;2022-11-14T10:26:31;2.83;;;1.40;;
21412;SDS011;10867;45.084;5.732;2022-11-14T10:50:41;4.03;;;2.05;;
21412;SDS011;10867;45.084;5.732;2022-11-14T10:53:56;5.03;;;2.15;;
21412;SDS011;10867;45.084;5.732;2022-11-14T10:59:35;4.00;;;1.48;;
21412;SDS011;10867;45.084;5.732;2022-11-14T11:02:15;2.28;;;1.30;;
21412;SDS011;10867;45.084;5.732;2022-11-14T11:04:42;2.60;;;1.27;;
21412;SDS011;10867;45.084;5.732;2022-11-14T11:10:18;2.10;;;1.30;;
21412;SDS011;10867;45.084;5.732;2022-11-14T11:13:08;2.22;;;1.10;;
21412;SDS011;10867;45.084;5.732;2022-11-14T11:15:42;1.92;;;1.20;;
21412;SDS011;10867;45.084;5.732;2022-11-14T11:18:38;1.70;;;1.30;;
21412;SDS011;10867;45.084;5.732;2022-11-14T11:30:11;2.38;;;1.30;;
21412;SDS011;10867;45.084;5.732;2022-11-14T11:32:35;1.95;;;1.20;;
21412;SDS011;10867;45.084;5.732;2022-11-14T11:35:11;2.67;;;1.20;;
21412;SDS011;10867;45.084;5.732;2022-11-14T11:43:10;2.83;;;1.20;;
21412;SDS011;10867;45.084;5.732;2022-11-14T11:45:43;1.85;;;1.27;;
21412;SDS011;10867;45.084;5.732;2022-11-14T11:48:28;1.80;;;1.30;;
21412;SDS011;10867;45.084;5.732;2022-11-14T11:51:00;2.90;;;1.27;;
21412;SDS011;10867;45.084;5.732;2022-11-14T11:54:15;3.60;;;1.40;;
21412;SDS011;10867;45.084;5.732;2022-11-14T11:56:58;3.28;;;2.90;;
21412;SDS011;10867;45.084;5.732;2022-11-14T12:01:54;4.40;;;3.28;;
21412;SDS011;10867;45.084;5.732;2022-11-14T12:04:20;10.63;;;9.73;;
21412;SDS011;10867;45.084;5.732;2022-11-14T12:06:52;3.00;;;2.50;;
21412;SDS011;10867;45.084;5.732;2022-11-14T12:09:21;2.60;;;1.52;;
21412;SDS011;10867;45.084;5.732;2022-11-14T12:11:51;4.03;;;1.48;;
21412;SDS011;10867;45.084;5.732;2022-11-14T12:22:14;2.50;;;1.23;;
21412;SDS011;10867;45.084;5.732;2022-11-14T12:30:15;2.60;;;0.93;;
21412;SDS011;10867;45.084;5.732;2022-11-14T12:32:50;2.10;;;1.13;;
21412;SDS011;10867;45.084;5.732;2022-11-14T12:35:21;2.85;;;2.55;;
21412;SDS011;10867;45.084;5.732;2022-11-14T12:37:49;1.70;;;1.35;;
21412;SDS011;10867;45.084;5.732;2022-11-14T12:40:30;2.97;;;1.88;;
21412;SDS011;10867;45.084;5.732;2022-11-14T12:42:57;2.20;;;1.40;;
21412;SDS011;10867;45.084;5.732;2022-11-14T12:48:20;1.90;;;1.25;;
21412;SDS011;10867;45.084;5.732;2022-11-14T12:50:46;1.33;;;1.13;;
21412;SDS011;10867;45.084;5.732;2022-11-14T12:56:06;2.10;;;1.20;;
21412;SDS011;10867;45.084;5.732;2022-11-14T13:11:46;2.25;;;1.20;;
21412;SDS011;10867;45.084;5.732;2022-11-14T13:14:46;1.70;;;1.13;;
21412;SDS011;10867;45.084;5.732;2022-11-14T13:17:36;1.25;;;1.08;;
21412;SDS011;10867;45.084;5.732;2022-11-14T13:20:26;3.23;;;1.30;;
21412;SDS011;10867;45.084;5.732;2022-11-14T13:31:04;2.90;;;1.30;;
21412;SDS011;10867;45.084;5.732;2022-11-14T13:36:08;2.58;;;1.40;;
21412;SDS011;10867;45.084;5.732;2022-11-14T13:38:40;4.70;;;1.38;;
21412;SDS011;10867;45.084;5.732;2022-11-14T13:43:59;1.60;;;1.30;;
21412;SDS011;10867;45.084;5.732;2022-11-14T13:49:04;2.90;;;1.38;;
21412;SDS011;10867;45.084;5.732;2022-11-14T13:51:34;2.10;;;1.30;;
21412;SDS011;10867;45.084;5.732;2022-11-14T13:54:00;2.42;;;1.20;;
21412;SDS011;10867;45.084;5.732;2022-11-14T14:04:53;1.90;;;1.20;;
21412;SDS011;10867;45.084;5.732;2022-11-14T14:17:35;2.17;;;1.38;;
21412;SDS011;10867;45.084;5.732;2022-11-14T14:22:52;1.90;;;1.30;;
21412;SDS011;10867;45.084;5.732;2022-11-14T14:25:40;1.95;;;1.25;;
21412;SDS011;10867;45.084;5.732;2022-11-14T14:28:19;2.63;;;1.30;;
21412;SDS011;10867;45.084;5.732;2022-11-14T14:30:59;1.77;;;1.17;;
21412;SDS011;10867;45.084;5.732;2022-11-14T14:33:26;2.10;;;1.10;;
21412;SDS011;10867;45.084;5.732;2022-11-14T14:35:54;2.58;;;1.40;;
21412;SDS011;10867;45.084;5.732;2022-11-14T14:38:21;2.00;;;1.15;;
21412;SDS011;10867;45.084;5.732;2022-11-14T14:40:48;1.48;;;1.20;;
21412;SDS011;10867;45.084;5.732;2022-11-14T14:43:22;3.40;;;1.33;;
21412;SDS011;10867;45.084;5.732;2022-11-14T14:45:50;1.80;;;1.10;;
21412;SDS011;10867;45.084;5.732;2022-11-14T14:48:20;3.47;;;1.30;;
21412;SDS011;10867;45.084;5.732;2022-11-14T14:50:48;4.60;;;1.60;;
21412;SDS011;10867;45.084;5.732;2022-11-14T14:53:18;2.83;;;1.70;;
21412;SDS011;10867;45.084;5.732;2022-11-14T14:55:52;2.63;;;1.27;;
21412;SDS011;10867;45.084;5.732;2022-11-14T15:03:20;1.80;;;1.10;;
21412;SDS011;10867;45.084;5.732;2022-11-14T15:05:47;3.47;;;1.20;;
21412;SDS011;10867;45.084;5.732;2022-11-14T15:08:14;1.60;;;1.30;;
21412;SDS011;10867;45.084;5.732;2022-11-14T15:10:41;2.80;;;1.20;;
21412;SDS011;10867;45.084;5.732;2022-11-14T15:13:10;2.28;;;1.27;;
21412;SDS011;10867;45.084;5.732;2022-11-14T15:15:36;1.60;;;1.25;;
21412;SDS011;10867;45.084;5.732;2022-11-14T15:18:04;1.40;;;1.13;;
21412;SDS011;10867;45.084;5.732;2022-11-14T15:20:31;3.25;;;1.40;;
21412;SDS011;10867;45.084;5.732;2022-11-14T15:23:01;2.25;;;1.40;;
21412;SDS011;10867;45.084;5.732;2022-11-14T15:25:27;2.47;;;1.47;;
21412;SDS011;10867;45.084;5.732;2022-11-14T15:27:54;4.03;;;1.30;;
21412;SDS011;10867;45.084;5.732;2022-11-14T15:30:27;1.90;;;1.20;;
21412;SDS011;10867;45.084;5.732;2022-11-14T15:32:56;1.60;;;1.40;;
21412;SDS011;10867;45.084;5.732;2022-11-14T15:35:24;1.98;;;1.30;;
21412;SDS011;10867;45.084;5.732;2022-11-14T15:46:25;2.00;;;1.30;;
21412;SDS011;10867;45.084;5.732;2022-11-14T15:48:51;2.53;;;1.35;;
21412;SDS011;10867;45.084;5.732;2022-11-14T15:51:17;2.27;;;1.60;;
21412;SDS011;10867;45.084;5.732;2022-11-14T15:53:47;2.73;;;1.70;;
21412;SDS011;10867;45.084;5.732;2022-11-14T15:56:14;1.53;;;1.40;;
21412;SDS011;10867;45.084;5.732;2022-11-14T15:58:40;2.45;;;1.30;;
21412;SDS011;10867;45.084;5.732;2022-11-14T16:01:09;3.13;;;1.30;;
21412;SDS011;10867;45.084;5.732;2022-11-14T16:03:38;1.60;;;1.20;;
21412;SDS011;10867;45.084;5.732;2022-11-14T16:06:04;1.58;;;1.20;;
21412;SDS011;10867;45.084;5.732;2022-11-14T16:08:30;2.53;;;1.30;;
21412;SDS011;10867;45.084;5.732;2022-11-14T16:10:56;1.40;;;1.10;;
21412;SDS011;10867;45.084;5.732;2022-11-14T16:13:23;1.70;;;1.40;;
21412;SDS011;10867;45.084;5.732;2022-11-14T16:15:49;2.83;;;1.20;;
21412;SDS011;10867;45.084;5.732;2022-11-14T16:18:15;2.30;;;1.20;;
21412;SDS011;10867;45.084;5.732;2022-11-14T16:20:41;3.45;;;2.20;;
21412;SDS011;10867;45.084;5.732;2022-11-14T16:23:09;2.22;;;1.42;;
21412;SDS011;10867;45.084;5.732;2022-11-14T16:25:36;1.40;;;1.30;;
21412;SDS011;10867;45.084;5.732;2022-11-14T16:28:02;1.40;;;1.07;;
21412;SDS011;10867;45.084;5.732;2022-11-14T16:30:28;2.78;;;1.15;;
21412;SDS011;10867;45.084;5.732;2022-11-14T16:32:54;1.17;;;1.08;;
21412;SDS011;10867;45.084;5.732;2022-11-14T16:35:21;2.20;;;1.20;;
21412;SDS011;10867;45.084;5.732;2022-11-14T16:37:47;2.25;;;1.20;;
21412;SDS011;10867;45.084;5.732;2022-11-14T16:40:15;1.90;;;1.20;;
21412;SDS011;10867;45.084;5.732;2022-11-14T16:42:41;2.53;;;1.27;;
21412;SDS011;10867;45.084;5.732;2022-11-14T16:45:08;1.90;;;1.20;;
21412;SDS011;10867;45.084;5.732;2022-11-14T16:47:34;1.75;;;1.20;;
21412;SDS011;10867;45.084;5.732;2022-11-14T16:50:01;1.75;;;1.38;;
21412;SDS011;10867;45.084;5.732;2022-11-14T16:52:27;1.98;;;1.30;;
21412;SDS011;10867;45.084;5.732;2022-11-14T16:54:53;3.13;;;1.27;;
21412;SDS011;10867;45.084;5.732;2022-11-14T16:57:19;1.70;;;1.13;;
21412;SDS011;10867;45.084;5.732;2022-11-14T16:59:45;1.42;;;1.10;;
21412;SDS011;10867;45.084;5.732;2022-11-14T17:02:12;2.10;;;1.30;;
21412;SDS011;10867;45.084;5.732;2022-11-14T17:04:40;2.65;;;1.20;;
21412;SDS011;10867;45.084;5.732;2022-11-14T17:07:10;1.97;;;1.20;;
21412;SDS011;10867;45.084;5.732;2022-11-14T17:09:36;2.05;;;1.10;;
21412;SDS011;10867;45.084;5.732;2022-11-14T17:12:02;5.53;;;5.00;;
21412;SDS011;10867;45.084;5.732;2022-11-14T17:14:28;2.67;;;1.30;;
21412;SDS011;10867;45.084;5.732;2022-11-14T17:16:55;3.15;;;1.60;;
21412;SDS011;10867;45.084;5.732;2022-11-14T17:19:21;9.20;;;8.30;;
21412;SDS011;10867;45.084;5.732;2022-11-14T17:21:47;3.22;;;1.63;;
21412;SDS011;10867;45.084;5.732;2022-11-14T17:24:13;1.90;;;1.38;;
21412;SDS011;10867;45.084;5.732;2022-11-14T17:26:40;1.92;;;1.50;;
21412;SDS011;10867;45.084;5.732;2022-11-14T17:29:07;2.92;;;1.50;;
21412;SDS011;10867;45.084;5.732;2022-11-14T17:31:33;2.15;;;1.40;;
21412;SDS011;10867;45.084;5.732;2022-11-14T17:33:59;3.53;;;1.98;;
21412;SDS011;10867;45.084;5.732;2022-11-14T17:36:27;2.70;;;1.27;;
21412;SDS011;10867;45.084;5.732;2022-11-14T17:38:54;1.90;;;1.30;;
21412;SDS011;10867;45.084;5.732;2022-11-14T17:41:21;1.83;;;1.50;;
21412;SDS011;10867;45.084;5.732;2022-11-14T17:43:50;5.45;;;5.05;;
21412;SDS011;10867;45.084;5.732;2022-11-14T17:46:18;2.45;;;1.60;;
21412;SDS011;10867;45.084;5.732;2022-11-14T17:48:44;2.10;;;1.75;;
21412;SDS011;10867;45.084;5.732;2022-11-14T17:51:12;2.50;;;1.80;;
21412;SDS011;10867;45.084;5.732;2022-11-14T17:53:38;4.20;;;2.05;;
21412;SDS011;10867;45.084;5.732;2022-11-14T17:56:04;2.70;;;1.70;;
21412;SDS011;10867;45.084;5.732;2022-11-14T17:58:31;2.88;;;1.95;;
21412;SDS011;10867;45.084;5.732;2022-11-14T18:00:58;3.60;;;2.00;;
21412;SDS011;10867;45.084;5.732;2022-11-14T18:03:25;2.92;;;1.90;;
21412;SDS011;10867;45.084;5.732;2022-11-14T18:05:51;3.53;;;1.88;;
21412;SDS011;10867;45.084;5.732;2022-11-14T18:08:20;2.92;;;1.90;;
21412;SDS011;10867;45.084;5.732;2022-11-14T18:10:46;3.50;;;2.30;;
21412;SDS011;10867;45.084;5.732;2022-11-14T18:13:12;2.70;;;1.30;;
21412;SDS011;10867;45.084;5.732;2022-11-14T18:15:38;2.40;;;1.40;;
21412;SDS011;10867;45.084;5.732;2022-11-14T18:18:04;2.47;;;1.40;;
21412;SDS011;10867;45.084;5.732;2022-11-14T18:20:31;1.95;;;1.40;;
21412;SDS011;10867;45.084;5.732;2022-11-14T18:22:58;2.22;;;1.48;;
21412;SDS011;10867;45.084;5.732;2022-11-14T18:25:24;1.50;;;1.15;;
21412;SDS011;10867;45.084;5.732;2022-11-14T18:27:50;1.75;;;1.40;;
21412;SDS011;10867;45.084;5.732;2022-11-14T18:30:16;2.53;;;1.35;;
21412;SDS011;10867;45.084;5.732;2022-11-14T18:32:43;2.20;;;1.52;;
21412;SDS011;10867;45.084;5.732;2022-11-14T18:35:09;4.18;;;1.65;;
21412;SDS011;10867;45.084;5.732;2022-11-14T18:37:35;1.88;;;1.40;;
21412;SDS011;10867;45.084;5.732;2022-11-14T18:40:02;2.03;;;1.57;;
21412;SDS011;10867;45.084;5.732;2022-11-14T18:42:28;2.33;;;1.40;;